createdAt,value
2023-09-25T00:01:51.214Z,20.31
2023-09-25T00:04:32.488Z,19.92
2023-09-25T00:07:06.657Z,19.50
2023-09-25T00:09:36.649Z,19.47
2023-09-25T00:12:03.912Z,19.23
2023-09-25T00:14:31.002Z,19.10
2023-09-25T00:16:58.009Z,19.08
2023-09-25T00:19:27.996Z,19.05
2023-09-25T00:22:00.879Z,19.08
2023-09-25T00:24:28.777Z,18.96
2023-09-25T00:26:55.872Z,18.98
2023-09-25T00:29:22.880Z,18.94
2023-09-25T00:31:54.153Z,18.97
2023-09-25T00:34:21.456Z,19.06
2023-09-25T00:36:48.534Z,19.03
2023-09-25T00:39:17.858Z,19.05
2023-09-25T00:41:53.890Z,19.10
2023-09-25T00:44:21.185Z,19.08
2023-09-25T00:46:48.294Z,19.14
2023-09-25T00:49:16.000Z,19.22
2023-09-25T00:51:50.710Z,19.15
2023-09-25T00:54:35.349Z,19.06
2023-09-25T00:57:07.634Z,19.09
2023-09-25T00:59:34.656Z,19.06
2023-09-25T01:02:08.142Z,19.12
2023-09-25T01:04:35.368Z,19.17
2023-09-25T01:07:07.379Z,19.21
2023-09-25T01:09:34.365Z,19.11
2023-09-25T01:12:02.642Z,19.10
2023-09-25T01:14:30.036Z,19.13
2023-09-25T01:17:01.117Z,19.24
2023-09-25T01:19:29.260Z,19.23
2023-09-25T01:21:58.010Z,19.70
2023-09-25T01:24:24.938Z,19.95
2023-09-25T01:26:55.909Z,20.66
2023-09-25T01:29:30.501Z,20.40
2023-09-25T01:31:57.430Z,19.95
2023-09-25T01:34:24.996Z,19.76
2023-09-25T01:36:52.197Z,19.56
2023-09-25T01:39:24.473Z,19.92
2023-09-25T01:41:51.453Z,20.51
2023-09-25T01:44:21.126Z,21.20
2023-09-25T01:46:49.025Z,20.73
2023-09-25T01:49:16.012Z,20.19
2023-09-25T01:52:00.121Z,19.92
2023-09-25T01:54:31.383Z,19.65
2023-09-25T01:56:58.527Z,19.58
2023-09-25T01:59:25.726Z,19.49
2023-09-25T02:01:54.116Z,19.40
2023-09-25T02:04:30.397Z,19.93
2023-09-25T02:06:57.510Z,19.82
2023-09-25T02:09:24.649Z,19.64
2023-09-25T02:11:51.721Z,19.76
2023-09-25T02:14:19.218Z,20.30
2023-09-25T02:16:46.363Z,20.58
2023-09-25T02:19:17.211Z,19.96
2023-09-25T02:21:44.650Z,19.67
2023-09-25T02:24:11.861Z,19.73
2023-09-25T02:26:38.899Z,19.61
2023-09-25T02:29:06.032Z,19.34
2023-09-25T02:31:42.779Z,19.37
2023-09-25T02:34:15.827Z,19.54
2023-09-25T02:36:55.311Z,19.69
2023-09-25T02:39:23.302Z,19.57
2023-09-25T02:41:50.337Z,19.75
2023-09-25T02:44:17.827Z,19.42
2023-09-25T02:46:44.739Z,19.40
2023-09-25T02:49:14.214Z,19.57
2023-09-25T02:51:41.639Z,19.21
2023-09-25T02:54:11.549Z,19.30
2023-09-25T02:56:38.600Z,19.43
2023-09-25T02:59:14.993Z,19.76
2023-09-25T03:01:41.922Z,20.04
2023-09-25T03:04:09.082Z,20.17
2023-09-25T03:06:39.300Z,19.73
2023-09-25T03:09:10.373Z,19.94
2023-09-25T03:11:42.303Z,19.81
2023-09-25T03:14:15.713Z,20.04
2023-09-25T03:16:47.161Z,19.78
2023-09-25T03:19:18.092Z,19.76
2023-09-25T03:21:48.348Z,19.78
2023-09-25T03:24:18.149Z,19.39
2023-09-25T03:26:59.734Z,19.19
2023-09-25T03:29:33.053Z,19.24
2023-09-25T03:32:01.720Z,19.03
2023-09-25T03:34:29.010Z,19.13
2023-09-25T03:36:57.121Z,19.09
2023-09-25T03:39:27.891Z,18.84
2023-09-25T03:41:57.258Z,19.00
2023-09-25T03:44:25.352Z,19.36
2023-09-25T03:46:52.564Z,19.43
2023-09-25T03:49:22.386Z,19.41
2023-09-25T03:51:50.384Z,19.09
2023-09-25T03:54:17.559Z,19.16
2023-09-25T03:56:48.367Z,19.01
2023-09-25T03:59:16.386Z,19.05
2023-09-25T04:01:43.507Z,19.09
2023-09-25T04:04:10.607Z,19.20
2023-09-25T04:06:37.727Z,19.24
2023-09-25T04:09:11.697Z,19.03
2023-09-25T04:11:38.590Z,19.09
2023-09-25T04:14:05.569Z,19.32
2023-09-25T04:16:34.692Z,19.44
2023-09-25T04:19:06.234Z,19.41
2023-09-25T04:21:34.290Z,19.31
2023-09-25T04:24:04.173Z,19.18
2023-09-25T04:26:35.147Z,19.40
2023-09-25T04:29:04.105Z,19.29
2023-09-25T04:31:33.210Z,19.54
2023-09-25T04:34:00.532Z,19.39
2023-09-25T04:36:27.415Z,19.39
2023-09-25T04:38:54.506Z,19.47
2023-09-25T04:41:23.559Z,19.28
2023-09-25T04:43:51.723Z,19.08
2023-09-25T04:46:18.768Z,18.65
2023-09-25T04:48:45.754Z,18.44
2023-09-25T04:51:16.654Z,18.32
2023-09-25T04:53:44.607Z,18.32
2023-09-25T04:56:11.680Z,18.53
2023-09-25T04:58:39.714Z,18.69
2023-09-25T05:01:06.909Z,18.74
2023-09-25T05:03:34.783Z,18.54
2023-09-25T05:06:06.693Z,18.41
2023-09-25T05:08:34.432Z,18.61
2023-09-25T05:11:01.447Z,18.73
2023-09-25T05:13:28.916Z,18.73
2023-09-25T05:15:57.132Z,18.38
2023-09-25T05:18:27.648Z,18.49
2023-09-25T05:20:55.575Z,18.37
2023-09-25T05:23:22.546Z,18.54
2023-09-25T05:25:49.458Z,18.52
2023-09-25T05:28:16.649Z,18.45
2023-09-25T05:30:43.860Z,18.43
2023-09-25T05:33:10.877Z,18.49
2023-09-25T05:35:41.947Z,18.59
2023-09-25T05:38:10.856Z,18.21
2023-09-25T05:40:41.297Z,18.18
2023-09-25T05:43:09.230Z,18.10
2023-09-25T05:45:36.235Z,18.16
2023-09-25T05:48:05.570Z,18.30
2023-09-25T05:50:35.470Z,18.35
2023-09-25T05:53:04.334Z,18.33
2023-09-25T05:55:31.648Z,18.13
2023-09-25T05:57:58.779Z,18.39
2023-09-25T06:00:28.537Z,18.56
2023-09-25T06:02:59.321Z,18.31
2023-09-25T06:05:38.100Z,18.46
2023-09-25T06:08:05.524Z,18.37
2023-09-25T06:10:32.369Z,18.43
2023-09-25T06:12:59.604Z,18.43
2023-09-25T06:15:27.356Z,18.11
2023-09-25T06:17:54.446Z,18.05
2023-09-25T06:20:22.057Z,18.41
2023-09-25T06:22:49.442Z,18.32
2023-09-25T06:25:20.356Z,18.34
2023-09-25T06:27:48.079Z,18.23
2023-09-25T06:30:16.202Z,18.32
2023-09-25T06:32:43.240Z,18.51
2023-09-25T06:35:10.572Z,18.89
2023-09-25T06:37:39.440Z,18.96
2023-09-25T06:40:11.899Z,19.16
2023-09-25T06:42:40.810Z,19.12
2023-09-25T06:45:08.831Z,18.81
2023-09-25T06:47:36.450Z,18.95
2023-09-25T06:50:04.189Z,18.79
2023-09-25T06:52:31.538Z,18.96
2023-09-25T06:54:58.882Z,18.75
2023-09-25T06:57:27.197Z,18.90
2023-09-25T06:59:54.359Z,18.75
2023-09-25T07:02:24.714Z,18.88
2023-09-25T07:04:54.270Z,19.10
2023-09-25T07:07:23.959Z,19.27
2023-09-25T07:09:51.897Z,19.04
2023-09-25T07:12:19.928Z,19.38
2023-09-25T07:14:53.447Z,19.25
2023-09-25T07:17:21.616Z,19.26
2023-09-25T07:19:54.636Z,19.07
2023-09-25T07:22:24.430Z,19.16
2023-09-25T07:24:52.244Z,19.19
2023-09-25T07:27:26.413Z,19.64
2023-09-25T07:29:53.512Z,19.54
2023-09-25T07:32:20.855Z,19.53
2023-09-25T07:34:48.095Z,19.41
2023-09-25T07:37:15.239Z,19.32
2023-09-25T07:39:42.885Z,19.14
2023-09-25T07:42:10.567Z,19.08
2023-09-25T07:44:46.742Z,19.08
2023-09-25T07:47:23.306Z,19.63
2023-09-25T07:49:50.563Z,19.56
2023-09-25T07:52:17.884Z,19.34
2023-09-25T07:54:51.580Z,19.49
2023-09-25T07:57:22.807Z,19.68
2023-09-25T07:59:50.778Z,19.68
2023-09-25T08:02:22.195Z,19.82
2023-09-25T08:04:54.492Z,19.92
2023-09-25T08:07:21.849Z,20.01
2023-09-25T08:09:49.107Z,20.16
2023-09-25T08:12:16.296Z,20.16
2023-09-25T08:14:46.660Z,20.15
2023-09-25T08:17:16.350Z,20.33
2023-09-25T08:19:49.286Z,20.21
2023-09-25T08:22:16.344Z,20.10
2023-09-25T08:24:43.653Z,20.11
2023-09-25T08:27:10.781Z,20.03
2023-09-25T08:29:37.920Z,20.26
2023-09-25T08:32:05.009Z,20.38
2023-09-25T08:34:40.008Z,20.53
2023-09-25T08:37:07.657Z,20.52
2023-09-25T08:39:35.670Z,20.49
2023-09-25T08:42:02.818Z,20.35
2023-09-25T08:44:33.598Z,20.52
2023-09-25T08:47:01.074Z,20.78
2023-09-25T08:49:28.806Z,20.84
2023-09-25T08:51:57.214Z,20.90
2023-09-25T08:54:24.483Z,20.97
2023-09-25T08:56:51.867Z,20.95
2023-09-25T08:59:20.699Z,21.09
2023-09-25T09:01:48.142Z,21.22
2023-09-25T09:04:17.447Z,21.23
2023-09-25T09:06:44.611Z,21.49
2023-09-25T09:09:14.164Z,21.61
2023-09-25T09:11:51.032Z,21.67
2023-09-25T09:14:47.474Z,21.76
2023-09-25T09:17:17.150Z,21.82
2023-09-25T09:19:53.249Z,21.91
2023-09-25T09:22:23.312Z,22.05
2023-09-25T09:24:54.851Z,22.05
2023-09-25T09:27:22.224Z,22.16
2023-09-25T09:29:59.924Z,22.11
2023-09-25T09:32:28.354Z,22.06
2023-09-25T09:34:59.716Z,22.21
2023-09-25T09:37:30.240Z,22.29
2023-09-25T09:39:59.680Z,22.41
2023-09-25T09:42:31.413Z,22.54
2023-09-25T09:44:58.940Z,22.58
2023-09-25T09:47:27.980Z,22.47
2023-09-25T09:49:56.135Z,22.64
2023-09-25T09:52:23.868Z,22.57
2023-09-25T09:54:52.464Z,22.56
2023-09-25T09:57:21.009Z,22.84
2023-09-25T09:59:50.470Z,23.00
2023-09-25T10:02:18.107Z,23.13
2023-09-25T10:04:46.210Z,23.19
2023-09-25T10:07:14.234Z,23.24
2023-09-25T10:10:07.984Z,23.29
2023-09-25T10:12:58.464Z,23.47
2023-09-25T10:15:27.106Z,23.63
2023-09-25T10:17:55.807Z,23.71
2023-09-25T10:23:22.615Z,23.97
2023-09-25T10:26:01.794Z,24.03
2023-09-25T10:28:30.942Z,24.00
2023-09-25T10:30:59.543Z,24.10
2023-09-25T10:33:57.155Z,24.15
2023-09-25T10:36:38.442Z,24.23
2023-09-25T10:39:09.919Z,24.21
2023-09-25T10:41:38.928Z,24.28
2023-09-25T10:44:06.682Z,24.44
2023-09-25T10:46:33.884Z,24.63
2023-09-25T10:49:02.082Z,24.70
2023-09-25T10:51:29.374Z,24.62
2023-09-25T10:53:59.231Z,24.93
2023-09-25T10:56:26.595Z,25.03
2023-09-25T10:58:56.385Z,25.02
2023-09-25T11:01:30.765Z,25.23
2023-09-25T11:04:02.770Z,25.33
2023-09-25T11:06:30.801Z,25.46
2023-09-25T11:09:25.941Z,25.40
2023-09-25T11:11:55.064Z,25.31
2023-09-25T11:14:23.371Z,25.15
2023-09-25T11:16:52.512Z,25.27
2023-09-25T11:19:19.584Z,25.58
2023-09-25T11:21:48.371Z,25.39
2023-09-25T11:24:15.738Z,25.27
2023-09-25T11:26:45.844Z,25.27
2023-09-25T11:29:13.887Z,25.42
2023-09-25T11:32:02.011Z,25.33
2023-09-25T11:34:30.787Z,25.19
2023-09-25T11:37:01.620Z,25.36
2023-09-25T11:39:28.911Z,25.62
2023-09-25T11:41:55.957Z,25.58
2023-09-25T11:44:23.153Z,25.73
2023-09-25T11:46:51.024Z,25.89
2023-09-25T11:49:18.844Z,26.02
2023-09-25T11:51:45.990Z,25.77
2023-09-25T11:54:13.552Z,25.44
2023-09-25T11:56:44.837Z,25.19
2023-09-25T11:59:17.534Z,24.99
2023-09-25T12:01:49.593Z,24.83
2023-09-25T12:04:17.733Z,24.64
2023-09-25T12:06:47.965Z,24.58
2023-09-25T12:09:15.098Z,24.59
2023-09-25T12:11:43.478Z,24.42
2023-09-25T12:14:10.393Z,24.48
2023-09-25T12:16:39.423Z,24.60
2023-09-25T12:19:06.753Z,24.69
2023-09-25T12:21:33.927Z,24.79
2023-09-25T12:24:01.945Z,24.68
2023-09-25T12:26:29.222Z,24.48
2023-09-25T12:28:56.764Z,24.31
2023-09-25T12:31:23.923Z,24.48
2023-09-25T12:33:53.019Z,24.52
2023-09-25T12:36:21.254Z,24.52
2023-09-25T12:38:52.340Z,24.55
2023-09-25T12:41:19.707Z,24.68
2023-09-25T12:43:50.089Z,24.63
2023-09-25T12:46:25.722Z,24.51
2023-09-25T12:48:54.042Z,24.58
2023-09-25T12:51:21.389Z,24.48
2023-09-25T12:53:49.372Z,24.45
2023-09-25T12:56:17.274Z,24.32
2023-09-25T12:58:45.605Z,24.02
2023-09-25T13:01:13.386Z,23.91
2023-09-25T13:03:40.917Z,23.95
2023-09-25T13:06:08.158Z,24.15
2023-09-25T13:08:38.406Z,24.15
2023-09-25T13:11:05.380Z,23.96
2023-09-25T13:13:37.099Z,23.94
2023-09-25T13:16:04.353Z,24.12
2023-09-25T13:18:31.565Z,24.20
2023-09-25T13:20:59.012Z,24.21
2023-09-25T13:23:26.421Z,24.07
2023-09-25T13:25:53.644Z,24.09
2023-09-25T13:28:20.836Z,24.16
2023-09-25T13:30:48.752Z,24.16
2023-09-25T13:33:15.836Z,24.20
2023-09-25T13:35:45.884Z,24.18
2023-09-25T13:38:13.102Z,24.05
2023-09-25T13:40:40.296Z,24.17
2023-09-25T13:43:07.587Z,24.29
2023-09-25T13:45:35.094Z,24.19
2023-09-25T13:48:02.247Z,24.24
2023-09-25T13:50:29.393Z,24.18
2023-09-25T13:52:59.884Z,24.02
2023-09-25T13:55:29.414Z,23.89
2023-09-25T13:57:59.193Z,23.75
2023-09-25T14:00:26.552Z,24.03
2023-09-25T14:02:55.108Z,24.18
2023-09-25T14:05:23.885Z,24.12
2023-09-25T14:07:51.245Z,24.07
2023-09-25T14:10:18.415Z,24.18
2023-09-25T14:12:46.942Z,23.98
2023-09-25T14:15:15.675Z,24.10
2023-09-25T14:17:47.299Z,24.09
2023-09-25T14:20:14.660Z,23.96
2023-09-25T14:22:41.777Z,23.85
2023-09-25T14:25:09.691Z,23.87
2023-09-25T14:27:36.995Z,23.92
2023-09-25T14:30:04.828Z,23.90
2023-09-25T14:32:35.332Z,23.96
2023-09-25T14:35:02.409Z,23.98
2023-09-25T14:37:29.668Z,23.98
2023-09-25T14:39:57.445Z,23.94
2023-09-25T14:42:24.852Z,24.16
2023-09-25T14:44:55.029Z,24.11
2023-09-25T14:47:22.940Z,23.84
2023-09-25T14:49:53.929Z,23.91
2023-09-25T14:52:23.754Z,24.01
2023-09-25T14:54:51.365Z,24.03
2023-09-25T14:57:18.901Z,24.03
2023-09-25T14:59:45.927Z,23.91
2023-09-25T15:02:14.518Z,23.92
2023-09-25T15:04:43.306Z,23.87
2023-09-25T15:07:10.462Z,24.04
2023-09-25T15:09:39.080Z,23.97
2023-09-25T15:12:08.200Z,23.84
2023-09-25T15:14:43.130Z,23.95
2023-09-25T15:17:13.700Z,23.93
2023-09-25T15:19:41.964Z,23.92
2023-09-25T15:22:09.289Z,23.84
2023-09-25T15:24:36.518Z,23.85
2023-09-25T15:27:05.127Z,23.78
2023-09-25T15:29:32.682Z,23.78
2023-09-25T15:32:03.668Z,23.75
2023-09-25T15:34:31.638Z,23.89
2023-09-25T15:36:59.323Z,23.93
2023-09-25T15:39:27.955Z,24.02
2023-09-25T15:41:55.147Z,24.22
2023-09-25T15:44:23.656Z,24.12
2023-09-25T15:46:54.139Z,24.03
2023-09-25T15:49:22.822Z,24.06
2023-09-25T15:51:50.067Z,24.04
2023-09-25T15:54:17.097Z,24.12
2023-09-25T15:56:44.176Z,23.99
2023-09-25T15:59:14.841Z,24.00
2023-09-25T16:01:42.338Z,23.88
2023-09-25T16:04:17.012Z,23.88
2023-09-25T16:06:48.655Z,23.87
2023-09-25T16:09:15.810Z,23.79
2023-09-25T16:11:42.792Z,23.78
2023-09-25T16:14:10.031Z,23.68
2023-09-25T16:16:40.354Z,23.75
2023-09-25T16:19:11.310Z,23.88
2023-09-25T16:21:41.590Z,24.00
2023-09-25T16:24:08.901Z,24.04
2023-09-25T16:26:36.042Z,23.85
2023-09-25T16:29:04.637Z,23.79
2023-09-25T16:31:31.593Z,23.72
2023-09-25T16:33:58.802Z,23.73
2023-09-25T16:36:25.899Z,23.73
2023-09-25T16:38:52.870Z,23.68
2023-09-25T16:41:21.191Z,23.70
2023-09-25T16:43:48.590Z,23.76
2023-09-25T16:46:18.775Z,23.75
2023-09-25T16:48:45.858Z,23.77
2023-09-25T16:51:15.598Z,23.70
2023-09-25T16:53:43.865Z,23.73
2023-09-25T16:56:14.239Z,23.64
2023-09-25T16:58:41.635Z,23.52
2023-09-25T17:03:41.538Z,23.41
2023-09-25T17:06:10.888Z,23.48
2023-09-25T17:08:38.361Z,23.43
2023-09-25T17:11:07.653Z,23.39
2023-09-25T17:13:34.711Z,23.38
2023-09-25T17:16:08.323Z,23.34
2023-09-25T17:18:35.590Z,23.30
2023-09-25T17:21:03.104Z,23.31
2023-09-25T17:23:30.454Z,23.24
2023-09-25T17:25:57.607Z,23.19
2023-09-25T17:28:24.962Z,23.13
2023-09-25T17:31:08.539Z,23.12
2023-09-25T17:33:36.513Z,22.98
2023-09-25T17:38:35.616Z,22.84
2023-09-25T17:41:05.603Z,22.89
2023-09-25T17:43:32.621Z,23.03
2023-09-25T17:46:04.132Z,22.93
2023-09-25T17:48:32.923Z,22.90
2023-09-25T17:51:05.324Z,23.07
2023-09-25T17:53:37.010Z,22.92
2023-09-25T17:56:05.470Z,22.81
2023-09-25T17:58:34.857Z,22.65
2023-09-25T18:01:02.685Z,22.55
2023-09-25T18:03:30.681Z,22.47
2023-09-25T18:05:58.106Z,22.46
2023-09-25T18:08:30.732Z,22.45
2023-09-25T18:10:58.504Z,22.44
2023-09-25T18:13:31.029Z,22.34
2023-09-25T18:16:01.031Z,22.32
2023-09-25T18:18:28.123Z,22.41
2023-09-25T18:20:57.536Z,22.35
2023-09-25T18:23:25.193Z,22.30
2023-09-25T18:25:55.189Z,22.20
2023-09-25T18:28:26.868Z,22.11
2023-09-25T18:30:57.590Z,22.07
2023-09-25T18:33:24.674Z,22.10
2023-09-25T18:35:51.707Z,22.10
2023-09-25T18:38:18.750Z,22.08
2023-09-25T18:40:45.901Z,21.94
2023-09-25T18:43:12.879Z,21.99
2023-09-25T18:45:40.030Z,21.91
2023-09-25T18:48:10.628Z,21.82
2023-09-25T18:50:43.123Z,21.88
2023-09-25T18:53:11.090Z,21.77
2023-09-25T18:55:45.771Z,21.71
2023-09-25T18:58:14.428Z,21.68
2023-09-25T19:00:50.382Z,21.63
2023-09-25T19:03:21.290Z,21.67
2023-09-25T19:05:55.607Z,21.55
2023-09-25T19:08:30.671Z,21.52
2023-09-25T19:13:51.891Z,21.51
2023-09-25T19:16:19.059Z,21.47
2023-09-25T19:18:46.310Z,21.43
2023-09-25T19:21:17.219Z,21.57
2023-09-25T19:23:52.985Z,21.50
2023-09-25T19:26:20.125Z,21.40
2023-09-25T19:28:47.246Z,21.37
2023-09-25T19:31:36.805Z,21.39
2023-09-25T19:34:03.603Z,21.25
2023-09-25T19:36:30.846Z,21.27
2023-09-25T19:39:00.347Z,21.34
2023-09-25T19:41:32.232Z,21.33
2023-09-25T19:43:59.554Z,21.42
2023-09-25T19:46:27.005Z,21.48
2023-09-25T19:48:54.359Z,21.43
2023-09-25T19:51:22.527Z,21.32
2023-09-25T19:53:51.877Z,21.25
2023-09-25T19:56:19.091Z,21.54
2023-09-25T19:58:46.086Z,21.54
2023-09-25T20:01:14.542Z,21.41
2023-09-25T20:03:43.588Z,21.17
2023-09-25T20:06:14.664Z,21.20
2023-09-25T20:08:42.156Z,21.21
2023-09-25T20:11:11.501Z,21.15
2023-09-25T20:14:00.015Z,21.20
2023-09-25T20:16:27.339Z,21.21
2023-09-25T20:18:54.623Z,21.16
2023-09-25T20:21:26.781Z,21.32
2023-09-25T20:23:56.548Z,21.45
2023-09-25T20:26:26.916Z,21.38
2023-09-25T20:28:54.175Z,21.51
2023-09-25T20:31:23.048Z,21.65
2023-09-25T20:33:57.601Z,21.54
2023-09-25T20:36:25.204Z,21.55
2023-09-25T20:38:53.608Z,21.86
2023-09-25T20:41:27.306Z,21.91
2023-09-25T20:43:54.573Z,21.90
2023-09-25T20:46:23.169Z,22.18
2023-09-25T20:48:54.138Z,22.15
2023-09-25T20:51:37.152Z,22.26
2023-09-25T20:54:04.711Z,22.15
2023-09-25T20:56:31.672Z,22.11
2023-09-25T20:59:01.881Z,22.22
2023-09-25T21:01:29.629Z,22.07
2023-09-25T21:03:56.931Z,22.19
2023-09-25T21:06:24.170Z,22.24
2023-09-25T21:08:53.450Z,22.12
2023-09-25T21:11:28.357Z,22.04
2023-09-25T21:14:05.232Z,22.18
2023-09-25T21:16:37.915Z,22.18
2023-09-25T21:19:05.557Z,22.14
2023-09-25T21:21:32.625Z,22.22
2023-09-25T21:24:03.954Z,22.12
2023-09-25T21:26:35.289Z,22.04
2023-09-25T21:29:04.464Z,22.11
2023-09-25T21:31:33.553Z,22.07
2023-09-25T21:34:05.660Z,21.97
2023-09-25T21:36:32.767Z,22.06
2023-09-25T21:39:00.016Z,22.10
2023-09-25T21:41:27.037Z,22.11
2023-09-25T21:43:54.236Z,22.15
2023-09-25T21:46:22.867Z,22.13
2023-09-25T21:48:50.271Z,22.09
2023-09-25T21:51:17.891Z,22.03
2023-09-25T21:53:45.049Z,22.06
2023-09-25T21:56:14.579Z,22.05
2023-09-25T21:58:45.579Z,21.99
2023-09-25T22:01:12.884Z,22.04
2023-09-25T22:03:42.511Z,21.90
2023-09-25T22:06:09.818Z,21.87
2023-09-25T22:08:37.157Z,21.97
2023-09-25T22:11:07.577Z,21.97
2023-09-25T22:13:38.324Z,21.93
2023-09-25T22:16:09.859Z,21.91
2023-09-25T22:18:40.805Z,21.91
2023-09-25T22:21:12.947Z,21.88
2023-09-25T22:23:40.519Z,21.76
2023-09-25T22:26:08.765Z,21.82
2023-09-25T22:28:37.014Z,21.76
2023-09-25T22:31:05.994Z,21.99
2023-09-25T22:33:34.379Z,21.89
2023-09-25T22:36:01.450Z,21.93
2023-09-25T22:38:28.676Z,22.08
2023-09-25T22:40:56.135Z,22.02
2023-09-25T22:43:23.178Z,21.88
2023-09-25T22:45:52.831Z,21.88
2023-09-25T22:48:19.965Z,21.97
2023-09-25T22:50:47.355Z,22.07
2023-09-25T22:53:14.711Z,21.96
2023-09-25T22:55:43.926Z,21.82
2023-09-25T22:58:11.131Z,21.69
2023-09-25T23:00:39.016Z,21.72
2023-09-25T23:03:06.601Z,21.86
2023-09-25T23:05:34.413Z,21.77
2023-09-25T23:08:01.485Z,21.77
2023-09-25T23:10:35.090Z,21.83
2023-09-25T23:13:02.309Z,21.83
2023-09-25T23:15:29.253Z,21.81
2023-09-25T23:17:56.452Z,21.83
2023-09-25T23:20:26.533Z,21.85
2023-09-25T23:22:57.866Z,21.74
2023-09-25T23:25:26.606Z,21.76
2023-09-25T23:27:54.376Z,21.87
2023-09-25T23:30:23.633Z,21.72
2023-09-25T23:32:59.122Z,21.82
2023-09-25T23:35:32.143Z,21.80
2023-09-25T23:37:59.716Z,21.83
2023-09-25T23:40:26.820Z,21.87
2023-09-25T23:42:55.143Z,21.84
2023-09-25T23:45:24.065Z,21.77
2023-09-25T23:47:51.616Z,21.66
2023-09-25T23:50:21.158Z,21.57
2023-09-25T23:52:49.477Z,21.85
2023-09-25T23:55:16.681Z,21.73
2023-09-25T23:57:46.727Z,21.73
